• Join FlightAware (Why Join?)
  • Login
  • US Flag 
01:56AM EST


 

Airport Tracker/Info


-or-


 

Live Flight TrackerFlight Track Log ✈ FLG4199 ✈ 31-Mar-2014 ✈ KFWA - KDTW

Flight Track Log - Related Links

Times and Time Zones

All times are in EDT time to prevent confusion due to time zone crossing. See the FLG4199 flight status page for this flight to view local times or setup timezone preferences in your user account.

Time Position Orientation Groundspeed Altitude Reporting Facility
EDT Latitude Longitude Course Direction KTS MPH feet Rate Location/Type
05:54AM 41.0011 -85.1244 37° Northeast 230 265 3,700  Level Chicago Center
05:55AM 41.0675 -85.0919 20° North 253 291 6,100 2,700 Climbing Chicago Center
05:56AM 41.1281 -85.0281 38° Northeast 272 313 9,100 2,550 Climbing Chicago Center
05:57AM 41.1903 -84.9606 39° Northeast 284 327 11,200 1,438 Climbing Chicago Center
05:58AM 41.2653 -84.8811 39° Northeast 341 392 12,000 397 Climbing Chicago Center
05:59AM 41.3486 -84.7917 39° Northeast 382 440 12,000  Level Chicago Center
06:00AM 41.2762 -84.8571 37° Northeast  Level FlightAware Approximate
06:00AM 41.4311 -84.7019 39° Northeast 387 445 12,000  Level Chicago Center
06:02AM 41.5294 -84.5964 39° Northeast 383 441 12,000  Level Chicago Center
06:03AM 41.6103 -84.5075 39° Northeast 379 436 12,000  Level Chicago Center
06:04AM 41.6858 -84.4100 44° Northeast 379 436 12,000  Level Chicago Center
06:05AM 41.7308 -84.2839 64° Northeast 382 440 12,000  Level Chicago Center
06:06AM 41.7794 -84.1606 62° Northeast 380 437 12,000  Level Chicago Center
06:07AM 41.8272 -84.0372 62° Northeast 378 435 12,000  Level Chicago Center
06:08AM 41.8919 -83.9275 52° Northeast 378 435 12,000  Level Chicago Center
06:09AM 41.9561 -83.8156 52° Northeast 376 433 12,000  Level Chicago Center
06:10AM 42.0233 -83.7075 50° Northeast 376 433 12,000  Level Chicago Center
06:11AM 42.1019 -83.6103 43° Northeast 372 428 12,000  Level Cleveland Center
06:11AM 42.1147 -83.5936 44° Northeast 372 428 12,000 -1,300 Level Cleveland Center
06:12AM 42.1878 -83.5333 31° Northeast 340 391 10,700 -1,343 Descending Cleveland Center
06:12AM 42.2019 -83.5244 25° Northeast 306 352 10,500 -1,279 Descending Cleveland Center
06:13AM 42.2644 -83.4872 24° Northeast 301 346 9,400 -1,418 Descending Cleveland Center
06:13AM 42.2681 -83.4858 16° North 268 308 9,200 -1,869 Descending Cleveland Center
06:14AM 42.3319 -83.4450 25° Northeast 272 313 7,500 -1,800 Descending Cleveland Center
06:14AM 42.3344 -83.4417 45° Northeast 264 304 7,400 -2,000 Descending Cleveland Center
06:15AM 42.3953 -83.3972 28° Northeast 270 311 5,500 -2,066 Descending Cleveland Center
06:15AM 42.3992 -83.3889 58° Northeast 286 329 5,300 -1,475 Descending Cleveland Center
06:16AM 42.3831 -83.3072 105° East 264 304 4,000 -1,433 Descending Cleveland Center
06:16AM 42.3692 -83.2914 140° Southeast 245 282 3,700 -984 Descending Cleveland Center
06:17AM 42.3261 -83.2914 180° South 226 260 3,000 -1,000 Descending Cleveland Center
06:17AM 42.3164 -83.2953 196° South 197 227 2,800 -1,100 Descending Cleveland Center
06:18AM 42.2797 -83.3139 201° Southwest 189 217 1,900 -984 Descending Cleveland Center
06:18AM 42.2750 -83.3175 210° Southwest 137 158 1,800 -885 Descending Cleveland Center
06:19AM 42.2464 -83.3392 209° Southwest 154 177 1,000 -885 Descending Cleveland Center
06:19AM 42.2414 -83.3439 215° Southwest 133 153 900 -857 Descending Cleveland Center